Time;durP1;ratioP1;P1;durP2;ratioP2;P2;SDS_P1;SDS_P2;PMS_P1;PMS_P2;Temp;Humidity;BMP_temperature;BMP_pressure;BME280_temperature;BME280_humidity;BME280_pressure;Samples;Min_cycle;Max_cycle;Signal;HPM_P1;HPM_P2
2024/02/16 00:00:18;;;;;;;9.88;3.75;;;12.80;99.90;;;;;;5143110;27;20042;-65
2024/02/16 00:02:45;;;;;;;9.90;4.25;;;12.80;99.90;;;;;;5137477;27;20122;-65
2024/02/16 00:05:12;;;;;;;11.30;3.92;;;12.70;99.90;;;;;;5139299;27;20506;-64
2024/02/16 00:07:38;;;;;;;8.93;3.97;;;12.70;99.90;;;;;;5142303;27;20035;-65
2024/02/16 00:10:07;;;;;;;9.55;3.92;;;12.70;99.90;;;;;;5144047;27;20106;-65
2024/02/16 00:12:33;;;;;;;;;;;12.70;99.90;;;;;;5122692;27;20444;-64
2024/02/16 00:15:00;;;;;;;6.57;3.45;;;12.80;99.90;;;;;;5142324;27;19922;-65
2024/02/16 00:17:27;;;;;;;8.32;3.88;;;12.70;99.90;;;;;;5147582;27;20049;-65
2024/02/16 00:19:54;;;;;;;6.75;3.53;;;12.70;99.90;;;;;;5142508;27;20486;-65
2024/02/16 00:22:20;;;;;;;6.15;3.10;;;12.70;99.90;;;;;;5143296;27;20587;-65
2024/02/16 00:24:46;;;;;;;7.10;3.70;;;12.70;99.90;;;;;;5140924;27;20042;-65
2024/02/16 00:27:12;;;;;;;8.80;3.38;;;12.70;99.90;;;;;;5142862;27;20509;-65
2024/02/16 00:29:38;;;;;;;7.97;3.50;;;12.60;99.90;;;;;;5129997;27;20039;-65
2024/02/16 00:32:06;;;;;;;9.88;3.70;;;12.60;99.90;;;;;;5119598;27;20038;-65
2024/02/16 00:34:32;;;;;;;11.52;4.45;;;12.50;99.90;;;;;;5141585;27;20073;-65
2024/02/16 00:36:58;;;;;;;7.57;3.72;;;12.60;99.90;;;;;;5145957;27;20074;-65
2024/02/16 00:39:24;;;;;;;6.38;3.28;;;12.50;99.90;;;;;;5101198;27;20031;-65
2024/02/16 00:41:51;;;;;;;12.20;3.97;;;12.50;99.90;;;;;;5140436;27;20517;-65
2024/02/16 00:44:17;;;;;;;8.60;3.97;;;12.50;99.90;;;;;;5134609;27;20565;-65
2024/02/16 00:46:44;;;;;;;9.57;4.03;;;12.40;99.90;;;;;;5145102;27;20096;-65
2024/02/16 00:49:10;;;;;;;5.90;3.30;;;12.40;99.90;;;;;;5140639;27;20043;-65
2024/02/16 00:51:37;;;;;;;8.23;3.70;;;12.40;99.90;;;;;;5143553;27;20037;-65
2024/02/16 00:54:03;;;;;;;7.32;3.53;;;12.40;99.90;;;;;;5135525;27;20035;-65
2024/02/16 00:56:30;;;;;;;8.05;3.50;;;12.40;99.90;;;;;;5145178;27;20034;-65
2024/02/16 00:58:56;;;;;;;10.23;3.72;;;12.30;99.90;;;;;;5144424;27;20483;-66
2024/02/16 01:01:22;;;;;;;7.30;3.45;;;12.30;99.90;;;;;;5138338;27;20202;-65
2024/02/16 01:03:51;;;;;;;11.45;3.42;;;12.30;99.90;;;;;;5136874;27;20563;-65
2024/02/16 01:06:17;;;;;;;11.48;3.72;;;12.30;99.90;;;;;;5130511;27;20049;-65
2024/02/16 01:08:43;;;;;;;12.98;3.42;;;12.30;99.90;;;;;;5140662;27;20034;-65
2024/02/16 01:11:09;;;;;;;7.90;3.60;;;12.00;99.90;;;;;;5128985;27;20047;-65
2024/02/16 01:13:35;;;;;;;7.47;3.25;;;12.20;99.90;;;;;;5141887;27;20467;-65
2024/02/16 01:16:02;;;;;;;5.10;3.20;;;12.20;99.90;;;;;;5135491;27;20440;-65
2024/02/16 01:18:29;;;;;;;7.63;3.33;;;12.20;99.90;;;;;;5143587;27;20038;-65
2024/02/16 01:20:55;;;;;;;6.72;3.20;;;12.20;99.90;;;;;;5145671;27;20034;-65
2024/02/16 01:23:21;;;;;;;10.00;3.88;;;12.20;99.90;;;;;;5141210;27;20053;-65
2024/02/16 01:25:48;;;;;;;5.32;3.03;;;12.20;99.90;;;;;;5140530;27;20092;-65
2024/02/16 01:28:14;;;;;;;7.68;3.60;;;12.20;99.90;;;;;;5140565;27;20043;-65
2024/02/16 01:30:40;;;;;;;12.63;3.40;;;12.20;99.90;;;;;;5142895;27;20134;-65
2024/02/16 01:33:06;;;;;;;8.77;3.22;;;12.20;99.90;;;;;;5142126;27;20535;-65
2024/02/16 01:35:35;;;;;;;9.43;3.90;;;12.20;99.90;;;;;;5142421;27;20464;-65
2024/02/16 01:38:02;;;;;;;7.57;3.47;;;12.20;99.90;;;;;;5136976;27;20034;-65
2024/02/16 01:40:28;;;;;;;11.13;3.65;;;12.20;99.90;;;;;;5135521;27;20049;-65
2024/02/16 01:42:54;;;;;;;9.55;3.83;;;12.20;99.90;;;;;;5142006;27;20045;-64
2024/02/16 01:45:20;;;;;;;8.93;3.55;;;12.20;99.90;;;;;;5139939;27;20046;-64
2024/02/16 01:47:49;;;;;;;11.68;3.78;;;12.20;99.90;;;;;;5116571;27;20096;-65
2024/02/16 01:50:16;;;;;;;7.78;3.60;;;12.10;99.90;;;;;;5137498;27;20039;-64
2024/02/16 01:52:44;;;;;;;7.40;3.33;;;12.20;99.90;;;;;;5138163;27;20038;-65
2024/02/16 01:55:11;;;;;;;7.38;3.53;;;12.10;99.90;;;;;;5141182;27;20511;-65
2024/02/16 01:57:43;;;;;;;7.30;3.30;;;12.10;99.90;;;;;;5138135;27;20453;-65
2024/02/16 02:00:09;;;;;;;6.07;3.42;;;12.10;99.90;;;;;;5128515;27;20131;-66
2024/02/16 02:02:36;;;;;;;5.60;3.08;;;12.20;99.90;;;;;;5118391;27;20043;-64
2024/02/16 02:05:02;;;;;;;6.75;3.40;;;12.20;99.90;;;;;;5140685;27;20486;-65
2024/02/16 02:07:27;;;;;;;9.75;3.03;;;12.10;99.90;;;;;;5138748;27;20502;-65
2024/02/16 02:09:54;;;;;;;8.35;3.50;;;12.10;99.90;;;;;;5120967;27;20046;-64
2024/02/16 02:12:20;;;;;;;4.72;3.20;;;12.10;99.90;;;;;;5138829;27;20034;-64
2024/02/16 02:14:46;;;;;;;9.57;3.72;;;12.10;99.90;;;;;;5142377;27;20103;-64
2024/02/16 02:17:12;;;;;;;10.75;3.30;;;12.00;99.90;;;;;;5143713;27;20039;-67
2024/02/16 02:19:38;;;;;;;8.38;3.60;;;12.00;99.90;;;;;;5140688;27;20090;-64
2024/02/16 02:22:08;;;;;;;8.45;3.28;;;12.00;99.90;;;;;;5143691;27;20047;-65
2024/02/16 02:24:34;;;;;;;8.88;3.03;;;12.00;99.90;;;;;;5121607;27;20047;-64
2024/02/16 02:27:00;;;;;;;7.38;2.88;;;12.00;99.90;;;;;;5139001;27;20049;-64
2024/02/16 02:29:26;;;;;;;7.60;3.22;;;11.90;99.90;;;;;;5145235;27;20520;-64
2024/02/16 02:31:51;;;;;;;8.50;3.47;;;11.90;99.90;;;;;;5142495;27;20139;-65
2024/02/16 02:34:17;;;;;;;8.98;3.63;;;11.90;99.90;;;;;;5144092;27;20046;-65
2024/02/16 02:36:44;;;;;;;6.93;3.00;;;11.90;99.90;;;;;;5120572;27;20043;-66
2024/02/16 02:39:10;;;;;;;7.65;3.55;;;11.90;99.90;;;;;;5128607;27;20452;-65
2024/02/16 02:41:35;;;;;;;9.30;3.08;;;11.80;99.90;;;;;;5136052;27;20096;-64
2024/02/16 02:44:01;;;;;;;7.88;3.30;;;11.80;99.90;;;;;;5139345;27;20038;-64
2024/02/16 02:46:27;;;;;;;6.53;3.40;;;11.80;99.90;;;;;;5138602;27;20130;-64
2024/02/16 02:48:53;;;;;;;6.75;3.35;;;11.80;99.90;;;;;;5134758;27;20046;-65
2024/02/16 02:51:19;;;;;;;5.47;3.28;;;11.70;99.90;;;;;;5134576;27;20035;-65
2024/02/16 02:53:44;;;;;;;7.50;3.05;;;11.80;99.90;;;;;;5135277;27;20571;-65
2024/02/16 02:56:10;;;;;;;8.05;3.95;;;11.70;99.90;;;;;;5140208;27;20062;-64
2024/02/16 02:58:38;;;;;;;5.70;3.40;;;11.80;99.90;;;;;;5135579;27;20049;-64
2024/02/16 03:01:05;;;;;;;5.27;3.07;;;11.80;99.90;;;;;;5133995;27;20045;-65
2024/02/16 03:03:30;;;;;;;6.10;3.00;;;11.70;99.90;;;;;;5133085;27;20042;-65
2024/02/16 03:05:57;;;;;;;4.63;3.42;;;11.80;99.90;;;;;;5138617;27;20182;-64
2024/02/16 03:08:22;;;;;;;8.20;2.97;;;11.70;99.90;;;;;;5132150;27;20441;-65
2024/02/16 03:10:48;;;;;;;8.13;3.45;;;11.70;99.90;;;;;;5127498;27;20031;-65
2024/02/16 03:13:17;;;;;;;7.00;3.20;;;11.70;99.90;;;;;;5137111;27;20117;-65
2024/02/16 03:15:43;;;;;;;5.90;3.50;;;11.70;99.90;;;;;;5136953;27;20482;-65
2024/02/16 03:18:09;;;;;;;6.82;3.40;;;11.70;99.90;;;;;;5137897;27;20035;-65
2024/02/16 03:20:35;;;;;;;9.18;3.60;;;11.70;99.90;;;;;;5136855;27;20041;-65
2024/02/16 03:23:02;;;;;;;8.93;3.90;;;11.70;99.90;;;;;;5135499;27;20105;-65
2024/02/16 03:25:28;;;;;;;7.88;3.60;;;11.70;99.90;;;;;;5134948;27;20438;-65
2024/02/16 03:27:54;;;;;;;6.85;3.58;;;11.70;99.90;;;;;;5141804;27;20035;-65
2024/02/16 03:30:21;;;;;;;8.52;3.13;;;11.60;99.90;;;;;;5139854;27;20073;-67
2024/02/16 03:32:50;;;;;;;7.68;3.72;;;11.60;99.90;;;;;;5144787;27;20038;-64
2024/02/16 03:35:16;;;;;;;8.27;3.45;;;11.60;99.90;;;;;;5139762;27;20096;-65
2024/02/16 03:37:43;;;;;;;6.50;3.70;;;11.60;99.90;;;;;;5142720;27;20148;-65
2024/02/16 03:40:09;;;;;;;13.13;3.83;;;11.60;99.90;;;;;;5140991;27;20042;-65
2024/02/16 03:42:35;;;;;;;7.68;3.03;;;11.50;99.90;;;;;;5133909;27;20050;-65
2024/02/16 03:45:02;;;;;;;7.47;3.60;;;11.60;99.90;;;;;;5139147;27;20053;-65
2024/02/16 03:47:28;;;;;;;7.65;3.15;;;11.60;99.90;;;;;;5143332;27;20118;-65
2024/02/16 03:49:54;;;;;;;6.55;3.28;;;11.60;99.90;;;;;;5139238;27;20454;-65
2024/02/16 03:52:20;;;;;;;8.23;3.53;;;11.60;99.90;;;;;;5137004;27;20042;-65
2024/02/16 03:54:49;;;;;;;3.83;3.08;;;11.70;99.90;;;;;;5143039;27;20053;-66
2024/02/16 03:57:16;;;;;;;4.95;3.13;;;11.70;99.90;;;;;;5134420;27;20035;-65
2024/02/16 03:59:45;;;;;;;5.68;2.97;;;11.60;99.90;;;;;;5138608;27;20066;-64
2024/02/16 04:02:13;;;;;;;6.03;3.15;;;11.60;99.90;;;;;;5141415;27;20039;-64
2024/02/16 04:04:39;;;;;;;9.38;3.40;;;11.60;99.90;;;;;;5133912;27;20104;-65
2024/02/16 04:07:06;;;;;;;8.00;3.63;;;11.70;99.90;;;;;;5139120;27;20046;-66
2024/02/16 04:09:33;;;;;;;6.10;3.15;;;11.60;99.90;;;;;;5141049;27;20113;-64
2024/02/16 04:11:58;;;;;;;5.45;3.13;;;11.50;99.90;;;;;;5145910;27;20041;-65
2024/02/16 04:14:24;;;;;;;6.93;2.90;;;11.50;99.90;;;;;;5141588;27;20422;-65
2024/02/16 04:16:50;;;;;;;9.05;3.47;;;11.50;99.90;;;;;;5139462;27;20387;-65
2024/02/16 04:19:16;;;;;;;6.20;3.30;;;11.50;99.90;;;;;;5144162;27;20093;-64
2024/02/16 04:21:41;;;;;;;6.72;3.45;;;11.50;99.90;;;;;;5129971;27;20087;-65
2024/02/16 04:24:07;;;;;;;6.40;3.17;;;11.50;99.90;;;;;;5142504;27;20039;-66
2024/02/16 04:26:33;;;;;;;5.10;3.00;;;11.50;99.90;;;;;;5137955;27;20041;-64
2024/02/16 04:28:59;;;;;;;11.05;3.55;;;11.50;99.90;;;;;;5142110;27;20046;-64
2024/02/16 04:31:25;;;;;;;5.78;2.90;;;11.50;99.90;;;;;;5145356;27;20042;-65
2024/02/16 04:33:51;;;;;;;7.20;2.80;;;11.40;99.90;;;;;;5139832;27;20034;-65
2024/02/16 04:36:17;;;;;;;9.48;3.03;;;11.50;99.90;;;;;;5140272;27;20042;-65
2024/02/16 04:38:43;;;;;;;9.50;3.95;;;11.50;99.90;;;;;;5142076;27;20140;-64
2024/02/16 04:41:09;;;;;;;5.68;3.38;;;11.40;99.90;;;;;;5121641;27;20043;-65
2024/02/16 04:43:34;;;;;;;5.75;2.95;;;11.40;99.90;;;;;;5124182;27;20760;-65
2024/02/16 04:46:00;;;;;;;6.20;2.92;;;11.40;99.90;;;;;;5141272;27;20043;-65
2024/02/16 04:48:26;;;;;;;8.25;3.50;;;11.40;99.90;;;;;;5146743;27;20065;-65
2024/02/16 04:50:52;;;;;;;5.47;3.13;;;11.50;99.90;;;;;;5140123;27;20108;-64
2024/02/16 04:53:18;;;;;;;3.88;3.10;;;11.50;99.90;;;;;;5145093;27;20054;-65
2024/02/16 04:55:44;;;;;;;5.40;3.28;;;11.40;99.90;;;;;;5145024;27;20474;-65
2024/02/16 04:58:09;;;;;;;6.53;3.40;;;11.40;99.90;;;;;;5141784;27;20134;-65
2024/02/16 05:00:38;;;;;;;8.38;3.75;;;11.40;99.90;;;;;;5136257;27;20043;-64
2024/02/16 05:03:04;;;;;;;7.25;3.58;;;11.40;99.90;;;;;;5136006;27;20050;-65
2024/02/16 05:05:30;;;;;;;7.15;3.30;;;11.40;99.90;;;;;;5141127;27;20168;-65
2024/02/16 05:07:57;;;;;;;7.30;3.38;;;11.40;99.90;;;;;;5139977;27;20141;-65
2024/02/16 05:10:22;;;;;;;9.82;4.32;;;11.40;99.90;;;;;;5137215;27;20039;-64
2024/02/16 05:12:48;;;;;;;4.60;3.10;;;11.50;99.90;;;;;;5135158;27;20034;-64
2024/02/16 05:15:14;;;;;;;7.85;3.00;;;11.50;99.90;;;;;;5137758;27;20406;-65
2024/02/16 05:17:41;;;;;;;7.20;3.45;;;11.40;99.90;;;;;;5139970;27;20039;-64
2024/02/16 05:20:15;;;;;;;6.68;3.60;;;11.40;99.90;;;;;;5144962;27;20443;-64
2024/02/16 05:22:45;;;;;;;7.15;3.00;;;11.50;99.90;;;;;;5140216;27;20092;-64
2024/02/16 05:25:15;;;;;;;5.68;3.05;;;11.40;99.90;;;;;;5132367;27;20045;-63
2024/02/16 05:27:41;;;;;;;4.70;3.30;;;11.40;99.90;;;;;;5140590;27;20675;-64
2024/02/16 05:30:11;;;;;;;6.28;3.35;;;11.50;99.90;;;;;;5144506;27;20848;-65
2024/02/16 05:32:37;;;;;;;5.72;3.10;;;11.40;99.90;;;;;;5123647;27;20042;-65
2024/02/16 05:35:17;;;;;;;5.85;3.30;;;11.40;99.90;;;;;;5125078;27;20034;-65
2024/02/16 05:37:49;;;;;;;7.35;3.15;;;11.50;99.90;;;;;;5131315;27;20038;-65
2024/02/16 05:40:23;;;;;;;8.27;3.60;;;11.40;99.90;;;;;;5133918;27;20049;-64
2024/02/16 05:42:51;;;;;;;5.38;3.20;;;11.40;99.90;;;;;;5142443;27;20800;-65
2024/02/16 05:45:17;;;;;;;5.65;2.80;;;11.40;99.90;;;;;;5138138;27;20053;-64
2024/02/16 05:47:45;;;;;;;5.78;3.35;;;11.50;99.90;;;;;;5137250;27;20031;-64
2024/02/16 05:50:12;;;;;;;8.33;3.50;;;11.50;99.90;;;;;;5144936;27;20514;-64
2024/02/16 05:52:38;;;;;;;8.23;3.13;;;11.50;99.90;;;;;;5115899;27;20034;-64
2024/02/16 05:55:06;;;;;;;8.38;3.10;;;11.50;99.90;;;;;;5135306;27;20530;-64
2024/02/16 05:57:31;;;;;;;11.15;3.60;;;11.50;99.90;;;;;;5140608;27;20509;-64
2024/02/16 05:59:57;;;;;;;6.82;3.85;;;11.50;99.90;;;;;;5137826;27;20030;-65
2024/02/16 06:02:25;;;;;;;7.32;3.28;;;11.50;99.90;;;;;;5137118;27;20049;-64
2024/02/16 06:04:52;;;;;;;6.65;3.33;;;11.50;99.90;;;;;;5139560;27;20038;-65
2024/02/16 06:07:18;;;;;;;4.05;3.15;;;11.50;99.90;;;;;;5138430;27;20085;-65
2024/02/16 06:09:43;;;;;;;7.13;3.42;;;11.50;99.90;;;;;;5118830;27;20113;-64
2024/02/16 06:12:09;;;;;;;6.38;2.90;;;11.60;99.90;;;;;;5136368;27;20050;-64
2024/02/16 07:28:16;;;;;;;4.95;3.30;;;11.70;99.90;;;;;;5037779;22;20395;-64
2024/02/16 07:30:42;;;;;;;7.85;3.33;;;11.70;99.90;;;;;;5103267;22;20145;-64
2024/02/16 07:33:08;;;;;;;4.40;2.70;;;11.80;99.90;;;;;;5076249;28;20051;-64
2024/02/16 07:35:38;;;;;;;4.00;2.70;;;11.80;99.90;;;;;;5073488;28;20039;-64
2024/02/16 07:38:04;;;;;;;4.45;3.00;;;11.80;99.90;;;;;;5076236;28;20046;-65
2024/02/16 07:40:33;;;;;;;5.88;3.13;;;11.80;99.90;;;;;;5071280;28;20047;-64
2024/02/16 07:43:02;;;;;;;5.30;2.78;;;11.80;99.90;;;;;;5077471;28;20121;-64
2024/02/16 07:45:28;;;;;;;5.78;3.13;;;11.80;99.90;;;;;;5079924;28;20044;-64
2024/02/16 07:47:54;;;;;;;11.55;3.10;;;11.80;99.90;;;;;;5076771;28;20569;-64
2024/02/16 07:50:23;;;;;;;4.10;2.83;;;11.80;99.90;;;;;;5081353;28;20300;-64
2024/02/16 07:52:50;;;;;;;;;;;11.90;99.90;;;;;;5079545;28;20040;-64
2024/02/16 07:55:20;;;;;;;6.15;3.30;;;11.80;99.90;;;;;;5080608;28;19920;-66
2024/02/16 07:57:46;;;;;;;5.75;2.90;;;11.90;99.90;;;;;;5077814;28;20048;-64
2024/02/16 08:00:13;;;;;;;5.93;2.85;;;11.90;99.90;;;;;;5079459;28;20063;-65
2024/02/16 08:02:43;;;;;;;7.85;2.88;;;11.90;99.90;;;;;;5077724;28;20044;-64
2024/02/16 08:05:12;;;;;;;5.20;3.00;;;11.90;99.90;;;;;;5076912;28;20075;-65
2024/02/16 08:07:38;;;;;;;;;;;11.90;99.90;;;;;;5079634;28;20040;-64
2024/02/16 08:10:04;;;;;;;4.22;3.15;;;11.90;99.90;;;;;;5076926;28;19926;-64
2024/02/16 08:12:31;;;;;;;4.68;3.10;;;11.90;99.90;;;;;;5079017;28;20040;-65
2024/02/16 08:14:58;;;;;;;7.75;3.40;;;12.00;99.90;;;;;;5076489;28;20044;-65
2024/02/16 08:17:24;;;;;;;7.57;3.25;;;12.00;99.90;;;;;;5079582;28;20048;-64
2024/02/16 08:19:53;;;;;;;5.95;3.25;;;12.00;99.90;;;;;;5081382;28;20494;-65
2024/02/16 08:22:19;;;;;;;6.28;3.08;;;12.10;99.90;;;;;;5076149;28;21099;-65
2024/02/16 08:24:46;;;;;;;6.25;3.17;;;12.10;99.90;;;;;;5074819;28;20133;-64
2024/02/16 08:27:15;;;;;;;4.45;3.00;;;12.10;99.90;;;;;;5076247;28;20435;-64
2024/02/16 08:29:44;;;;;;;6.35;3.95;;;12.10;99.90;;;;;;5073412;28;21240;-65
2024/02/16 08:32:10;;;;;;;5.25;3.20;;;12.10;99.90;;;;;;5079042;28;20085;-65
2024/02/16 08:34:36;;;;;;;6.18;3.50;;;12.20;99.90;;;;;;5076316;28;20507;-64
2024/02/16 08:37:04;;;;;;;5.30;3.38;;;12.20;99.90;;;;;;5077035;28;20044;-64
2024/02/16 08:39:30;;;;;;;4.22;3.28;;;12.20;99.90;;;;;;5077599;28;20332;-65
2024/02/16 08:41:56;;;;;;;6.65;3.50;;;12.20;99.90;;;;;;5076641;28;20439;-65
2024/02/16 08:44:22;;;;;;;8.48;3.60;;;12.30;99.90;;;;;;5077531;28;20050;-65
2024/02/16 08:46:49;;;;;;;5.60;3.53;;;12.30;99.90;;;;;;5077485;28;20036;-65
2024/02/16 08:49:16;;;;;;;4.35;3.33;;;12.30;99.90;;;;;;5076936;28;20047;-65
2024/02/16 08:51:42;;;;;;;11.40;3.42;;;12.30;99.90;;;;;;5076525;28;20150;-65
2024/02/16 08:54:08;;;;;;;7.32;3.85;;;12.40;99.90;;;;;;5078530;28;20036;-65
2024/02/16 08:56:35;;;;;;;8.15;3.53;;;12.40;99.90;;;;;;5077869;28;20035;-64
2024/02/16 08:59:04;;;;;;;5.57;3.35;;;12.40;99.90;;;;;;5077209;28;20037;-64
2024/02/16 09:01:31;;;;;;;7.15;3.78;;;12.40;99.90;;;;;;5074260;28;20032;-65
2024/02/16 09:03:57;;;;;;;7.65;4.15;;;12.50;99.90;;;;;;5073477;28;21028;-65
2024/02/16 09:06:22;;;;;;;8.02;3.83;;;12.50;99.90;;;;;;5073011;28;20044;-64
2024/02/16 09:08:48;;;;;;;9.18;4.00;;;12.50;99.90;;;;;;5068165;28;20036;-64
2024/02/16 09:11:14;;;;;;;8.35;4.47;;;12.60;99.90;;;;;;5065014;28;20115;-64
2024/02/16 09:13:40;;;;;;;5.85;3.20;;;12.60;99.90;;;;;;5072804;28;20047;-64
2024/02/16 09:16:07;;;;;;;8.07;3.95;;;12.60;99.90;;;;;;5077368;28;20500;-65
2024/02/16 09:18:33;;;;;;;8.20;3.88;;;12.70;99.90;;;;;;5077839;28;20146;-65
2024/02/16 09:20:59;;;;;;;8.70;4.65;;;12.70;99.90;;;;;;5076614;28;20619;-65
2024/02/16 09:23:26;;;;;;;8.73;4.50;;;12.80;99.90;;;;;;5065184;28;20600;-65
2024/02/16 09:25:52;;;;;;;8.30;4.15;;;12.80;99.90;;;;;;5071680;28;20484;-65
2024/02/16 09:28:18;;;;;;;8.40;4.47;;;12.90;99.90;;;;;;5073342;28;20051;-65
2024/02/16 09:30:45;;;;;;;5.20;3.88;;;13.00;99.90;;;;;;5077821;28;20590;-65
2024/02/16 09:33:10;;;;;;;8.85;4.32;;;13.00;99.90;;;;;;5075780;28;20489;-65
2024/02/16 09:35:36;;;;;;;6.70;4.22;;;13.10;99.90;;;;;;5076746;28;20067;-65
2024/02/16 09:38:02;;;;;;;10.02;4.57;;;13.10;99.90;;;;;;5077827;28;20117;-65
2024/02/16 09:40:28;;;;;;;6.55;4.63;;;13.20;99.90;;;;;;5079067;28;20046;-65
2024/02/16 09:42:54;;;;;;;18.23;6.22;;;13.30;99.90;;;;;;5073743;28;20036;-65
2024/02/16 09:45:20;;;;;;;7.28;4.35;;;13.30;99.90;;;;;;5078612;28;20097;-65
2024/02/16 09:47:49;;;;;;;8.48;5.03;;;13.40;99.90;;;;;;5074529;28;20089;-65
2024/02/16 09:50:15;;;;;;;6.32;4.68;;;13.40;99.90;;;;;;5076627;28;20035;-65
2024/02/16 09:52:46;;;;;;;8.93;4.88;;;13.50;99.90;;;;;;5072507;28;20052;-65
2024/02/16 09:55:13;;;;;;;9.18;4.82;;;13.50;99.90;;;;;;5074192;28;20606;-65
2024/02/16 09:57:39;;;;;;;11.27;4.53;;;13.60;99.90;;;;;;5076999;28;20036;-65
2024/02/16 10:00:05;;;;;;;7.45;4.60;;;13.70;99.90;;;;;;5074152;28;20507;-65
2024/02/16 10:02:44;;;;;;;8.57;4.68;;;13.70;99.90;;;;;;5076208;28;20047;-66
2024/02/16 10:05:15;;;;;;;8.60;5.07;;;13.80;99.90;;;;;;5076697;28;20092;-65
2024/02/16 10:07:42;;;;;;;8.38;5.10;;;13.90;99.90;;;;;;5076179;28;20028;-65
2024/02/16 10:10:30;;;;;;;7.47;5.05;;;13.90;99.90;;;;;;5079231;28;20052;-65
2024/02/16 10:13:06;;;;;;;6.85;4.93;;;13.90;99.90;;;;;;5077119;28;20404;-65
2024/02/16 10:15:35;;;;;;;10.20;5.43;;;14.00;99.90;;;;;;5075095;28;20039;-66
2024/02/16 10:18:01;;;;;;;10.02;5.10;;;14.10;99.90;;;;;;5072492;28;20063;-64
2024/02/16 10:20:27;;;;;;;10.07;5.80;;;14.10;99.90;;;;;;5077890;28;20043;-65
2024/02/16 10:23:06;;;;;;;11.00;5.28;;;14.10;99.90;;;;;;5076744;28;20457;-65
2024/02/16 10:25:32;;;;;;;10.18;5.70;;;14.10;99.90;;;;;;5076206;28;20036;-65
2024/02/16 10:28:02;;;;;;;10.18;5.65;;;14.10;99.90;;;;;;5077329;28;20122;-65
2024/02/16 10:30:33;;;;;;;10.70;5.85;;;14.00;99.90;;;;;;5077947;28;20039;-65
2024/02/16 10:32:59;;;;;;;10.57;6.25;;;14.00;99.90;;;;;;5068736;28;20040;-65
2024/02/16 10:35:26;;;;;;;10.13;6.20;;;14.00;99.90;;;;;;5075567;28;20331;-65
2024/02/16 10:37:53;;;;;;;9.85;6.45;;;13.90;99.90;;;;;;5076455;28;20127;-65
2024/02/16 10:40:20;;;;;;;11.40;6.65;;;13.90;99.90;;;;;;5067919;28;20047;-65
2024/02/16 10:42:48;;;;;;;9.57;6.50;;;13.80;99.90;;;;;;5074963;28;20055;-64
2024/02/16 10:45:14;;;;;;;11.18;6.40;;;13.90;99.90;;;;;;5072886;28;20048;-66
2024/02/16 10:47:39;;;;;;;10.25;6.63;;;13.80;99.90;;;;;;5076748;28;20359;-65
2024/02/16 10:50:07;;;;;;;13.07;6.80;;;13.80;99.90;;;;;;5075017;28;20117;-65
2024/02/16 10:52:34;;;;;;;11.40;6.45;;;13.80;99.90;;;;;;5075581;28;20051;-65
2024/02/16 10:55:01;;;;;;;16.42;7.55;;;14.10;99.90;;;;;;5075311;28;20070;-65
2024/02/16 10:57:27;;;;;;;15.05;7.78;;;13.70;99.90;;;;;;5074739;28;20509;-65
2024/02/16 10:59:54;;;;;;;14.20;8.43;;;13.60;99.90;;;;;;5077804;28;20046;-64
2024/02/16 11:02:20;;;;;;;17.80;7.70;;;13.50;99.90;;;;;;5082249;28;20284;-65
2024/02/16 11:04:50;;;;;;;12.07;8.40;;;13.40;99.90;;;;;;5078902;28;20419;-65
2024/02/16 11:07:16;;;;;;;17.58;9.57;;;13.30;99.90;;;;;;5080893;28;20044;-64
2024/02/16 11:09:43;;;;;;;14.70;8.73;;;13.20;99.90;;;;;;5081153;28;20048;-64
2024/02/16 11:12:12;;;;;;;15.85;8.85;;;13.10;99.90;;;;;;5079352;28;20036;-65
2024/02/16 11:14:38;;;;;;;19.95;9.65;;;13.10;99.90;;;;;;5078155;28;20039;-65
2024/02/16 11:17:14;;;;;;;19.08;10.05;;;13.00;99.90;;;;;;5080752;28;20496;-64
2024/02/16 11:19:44;;;;;;;20.35;11.15;;;12.90;99.90;;;;;;5077190;28;20550;-65
2024/02/16 11:22:12;;;;;;;19.33;11.02;;;12.80;99.90;;;;;;5081579;28;20047;-65
2024/02/16 11:24:47;;;;;;;21.02;11.55;;;12.80;99.90;;;;;;5081117;28;20056;-65
2024/02/16 11:27:15;;;;;;;22.85;11.70;;;12.70;99.90;;;;;;5081518;28;20561;-65
2024/02/16 11:29:41;;;;;;;25.38;13.00;;;12.70;99.90;;;;;;5079765;28;20071;-65
2024/02/16 11:32:07;;;;;;;22.13;11.95;;;12.50;99.90;;;;;;5080365;28;20035;-64
2024/02/16 11:34:34;;;;;;;27.42;12.50;;;12.50;99.90;;;;;;5079964;28;20036;-64
2024/02/16 11:37:02;;;;;;;23.65;12.55;;;12.40;99.90;;;;;;5073877;28;20036;-64
2024/02/16 11:39:33;;;;;;;20.33;12.50;;;12.20;99.90;;;;;;5078229;28;20485;-65
2024/02/16 11:42:12;;;;;;;23.52;12.63;;;12.20;99.90;;;;;;5081532;28;20040;-65
2024/02/16 11:44:40;;;;;;;26.83;12.52;;;12.10;99.90;;;;;;5079220;28;20094;-64
2024/02/16 11:47:12;;;;;;;21.65;11.82;;;12.00;99.90;;;;;;5080776;28;20060;-65
2024/02/16 11:49:38;;;;;;;19.23;11.15;;;11.90;99.90;;;;;;5080427;28;20042;-65
2024/02/16 11:52:07;;;;;;;19.48;10.88;;;11.90;99.90;;;;;;5073526;28;20582;-65
2024/02/16 11:54:33;;;;;;;16.55;10.27;;;11.90;99.90;;;;;;5081446;28;20051;-65
2024/02/16 11:56:59;;;;;;;14.25;9.02;;;11.80;99.90;;;;;;5079793;28;20044;-65
2024/02/16 11:59:25;;;;;;;19.05;9.27;;;11.70;99.90;;;;;;5080240;28;20534;-65
2024/02/16 12:01:57;;;;;;;13.60;9.20;;;11.80;99.90;;;;;;5080130;28;20183;-64
2024/02/16 12:04:30;;;;;;;13.93;9.32;;;11.70;99.90;;;;;;5077657;28;20325;-64
2024/02/16 12:06:57;;;;;;;14.98;8.88;;;11.80;99.90;;;;;;5078527;28;20084;-64
2024/02/16 12:09:24;;;;;;;15.80;9.13;;;11.80;99.90;;;;;;5078202;28;21174;-63
2024/02/16 12:11:51;;;;;;;14.63;9.25;;;11.80;99.90;;;;;;5076653;28;20126;-64
2024/02/16 12:14:18;;;;;;;13.93;8.55;;;11.70;99.90;;;;;;5080075;28;21091;-64
2024/02/16 12:16:48;;;;;;;12.52;8.02;;;11.90;99.90;;;;;;5076580;28;20125;-64
2024/02/16 12:19:14;;;;;;;14.88;8.45;;;11.80;99.90;;;;;;5080185;28;20115;-62
2024/02/16 12:21:40;;;;;;;11.52;7.70;;;11.70;99.90;;;;;;5071723;28;20096;-64
2024/02/16 12:24:06;;;;;;;12.63;7.00;;;11.80;99.90;;;;;;5079148;28;20603;-64
2024/02/16 12:26:32;;;;;;;15.32;7.65;;;11.80;99.90;;;;;;5076957;28;20151;-64
2024/02/16 12:28:57;;;;;;;12.55;7.78;;;11.60;99.90;;;;;;5079046;28;20075;-63
2024/02/16 12:31:26;;;;;;;12.93;7.18;;;11.80;99.90;;;;;;5078701;28;20070;-65
2024/02/16 12:33:52;;;;;;;13.43;6.75;;;11.80;99.90;;;;;;5075104;28;20484;-65
2024/02/16 12:36:18;;;;;;;11.05;6.72;;;11.90;99.90;;;;;;5077753;28;20281;-63
2024/02/16 12:38:44;;;;;;;13.48;6.60;;;11.70;99.90;;;;;;5078947;28;20043;-64
2024/02/16 12:41:10;;;;;;;10.40;6.22;;;12.10;99.90;;;;;;5078253;28;20050;-64
2024/02/16 12:43:36;;;;;;;11.70;6.35;;;11.90;99.90;;;;;;5070539;28;20043;-64
2024/02/16 12:46:03;;;;;;;7.80;5.32;;;11.90;99.90;;;;;;5073820;28;20032;-64
2024/02/16 12:48:29;;;;;;;9.38;5.53;;;11.90;99.90;;;;;;5076480;28;20055;-63
2024/02/16 12:50:57;;;;;;;8.02;5.22;;;11.90;99.90;;;;;;5077108;28;20422;-64
2024/02/16 12:53:24;;;;;;;8.75;5.00;;;11.80;99.90;;;;;;5074352;28;20063;-65
2024/02/16 12:55:50;;;;;;;11.13;5.40;;;11.90;99.90;;;;;;5077945;28;20040;-63
2024/02/16 12:58:16;;;;;;;9.75;5.70;;;11.90;99.90;;;;;;5071528;28;20535;-65
2024/02/16 13:00:42;;;;;;;8.25;5.07;;;11.90;99.90;;;;;;5077256;28;20131;-64
2024/02/16 13:03:08;;;;;;;5.85;4.50;;;11.70;99.90;;;;;;5076585;28;20052;-64
2024/02/16 13:05:34;;;;;;;7.90;4.70;;;11.90;99.90;;;;;;5074307;28;20051;-64
2024/02/16 13:08:00;;;;;;;6.47;4.63;;;11.80;99.90;;;;;;5075547;28;20095;-65
2024/02/16 13:10:25;;;;;;;8.60;4.53;;;11.80;99.90;;;;;;5077128;28;20040;-64
2024/02/16 13:12:51;;;;;;;5.88;3.95;;;11.90;99.90;;;;;;5074014;28;20036;-63
2024/02/16 13:15:17;;;;;;;10.48;3.90;;;11.70;99.90;;;;;;5074628;28;20746;-64
2024/02/16 13:17:43;;;;;;;5.40;3.80;;;11.70;99.90;;;;;;5075770;28;21255;-64
2024/02/16 13:20:11;;;;;;;6.70;4.50;;;11.90;99.90;;;;;;5076831;28;20058;-64
2024/02/16 13:22:37;;;;;;;6.80;4.20;;;11.80;99.90;;;;;;5073067;28;20065;-64
2024/02/16 13:25:05;;;;;;;6.32;4.10;;;12.00;99.90;;;;;;5070941;28;20686;-65
2024/02/16 13:27:31;;;;;;;5.28;3.85;;;11.90;99.90;;;;;;5037419;28;20052;-65
2024/02/16 13:29:57;;;;;;;4.07;3.38;;;11.70;99.90;;;;;;5076295;28;20603;-64
2024/02/16 13:32:24;;;;;;;7.57;3.53;;;11.90;99.90;;;;;;5076680;28;20124;-65
2024/02/16 13:34:49;;;;;;;4.55;3.17;;;11.80;99.90;;;;;;5105934;27;20092;-65
2024/02/16 13:37:15;;;;;;;7.13;3.08;;;12.00;99.90;;;;;;5079309;28;20703;-64
2024/02/16 13:39:41;;;;;;;4.07;3.00;;;11.90;99.90;;;;;;5076719;28;20127;-65
2024/02/16 13:42:06;;;;;;;3.80;2.85;;;11.70;99.90;;;;;;5075226;28;20049;-64
2024/02/16 13:44:32;;;;;;;4.55;2.92;;;11.80;99.90;;;;;;5073611;28;20044;-65
2024/02/16 13:46:58;;;;;;;3.55;2.65;;;11.70;99.90;;;;;;5075218;28;20465;-65
2024/02/16 13:49:24;;;;;;;3.10;2.80;;;11.80;99.90;;;;;;5076475;28;20045;-65
2024/02/16 13:51:50;;;;;;;6.45;3.70;;;11.70;99.90;;;;;;5075911;28;20123;-64
2024/02/16 13:54:15;;;;;;;5.18;3.38;;;11.70;99.90;;;;;;5068642;28;20067;-65
2024/02/16 13:56:41;;;;;;;5.30;3.22;;;11.70;99.90;;;;;;5075154;28;20048;-64